createdAt,value
2022-10-07T00:00:13.902Z,19.80
2022-10-07T00:03:00.400Z,19.80
2022-10-07T00:05:46.550Z,19.60
2022-10-07T00:08:32.928Z,19.60
2022-10-07T00:11:21.918Z,19.50
2022-10-07T00:14:08.148Z,19.60
2022-10-07T00:16:54.622Z,19.50
2022-10-07T00:19:40.648Z,19.40
2022-10-07T00:22:26.487Z,19.40
2022-10-07T00:25:12.938Z,19.50
2022-10-07T00:27:59.908Z,19.50
2022-10-07T00:30:45.938Z,19.50
2022-10-07T00:33:34.242Z,19.50
2022-10-07T00:36:25.560Z,19.50
2022-10-07T00:39:14.869Z,19.50
2022-10-07T00:42:01.031Z,19.50
2022-10-07T00:44:48.668Z,19.40
2022-10-07T00:47:35.661Z,19.30
2022-10-07T00:50:29.597Z,19.30
2022-10-07T00:53:16.240Z,19.30
2022-10-07T00:56:04.643Z,19.30
2022-10-07T00:58:52.219Z,19.30
2022-10-07T01:01:41.184Z,19.20
2022-10-07T01:04:28.778Z,19.20
2022-10-07T01:07:18.292Z,19.20
2022-10-07T01:10:05.296Z,19.20
2022-10-07T01:13:14.662Z,19.20
2022-10-07T01:16:06.369Z,19.20
2022-10-07T01:19:32.084Z,19.20
2022-10-07T01:22:28.204Z,19.30
2022-10-07T01:25:16.710Z,19.20
2022-10-07T01:28:19.864Z,19.10
2022-10-07T01:31:11.745Z,19.10
2022-10-07T01:33:59.070Z,19.00
2022-10-07T01:36:51.043Z,19.10
2022-10-07T01:39:45.700Z,19.00
2022-10-07T01:42:33.058Z,19.00
2022-10-07T01:45:22.528Z,18.90
2022-10-07T01:48:09.290Z,18.80
2022-10-07T01:50:57.126Z,18.70
2022-10-07T01:53:58.669Z,18.60
2022-10-07T01:56:53.680Z,18.60
2022-10-07T01:59:49.401Z,18.60
2022-10-07T02:03:12.986Z,18.60
2022-10-07T02:06:38.392Z,18.50
2022-10-07T02:09:51.621Z,18.60
2022-10-07T02:12:53.333Z,18.70
2022-10-07T02:15:47.756Z,18.50
2022-10-07T02:18:35.858Z,18.60
2022-10-07T02:21:30.250Z,18.70
2022-10-07T02:24:19.615Z,18.60
2022-10-07T02:27:12.678Z,18.60
2022-10-07T02:30:06.758Z,18.60
2022-10-07T02:32:55.700Z,18.60
2022-10-07T02:35:49.041Z,18.60
2022-10-07T02:38:35.896Z,18.60
2022-10-07T02:41:53.118Z,18.50
2022-10-07T02:44:51.356Z,18.50
2022-10-07T02:47:47.852Z,18.40
2022-10-07T02:50:42.379Z,18.40
2022-10-07T02:53:32.368Z,18.40
2022-10-07T02:56:22.709Z,18.40
2022-10-07T02:59:11.669Z,18.40
2022-10-07T03:02:02.726Z,18.30
2022-10-07T03:04:49.175Z,18.40
2022-10-07T03:07:36.132Z,18.40
2022-10-07T03:10:24.223Z,18.40
2022-10-07T03:13:10.111Z,18.40
2022-10-07T03:15:59.118Z,18.30
2022-10-07T03:18:46.564Z,18.30
2022-10-07T03:21:58.372Z,18.30
2022-10-07T03:24:44.353Z,18.20
2022-10-07T03:27:30.428Z,18.10
2022-10-07T03:30:22.283Z,18.10
2022-10-07T03:33:11.694Z,18.10
2022-10-07T03:35:57.324Z,18.10
2022-10-07T03:38:43.617Z,18.10
2022-10-07T03:41:30.373Z,18.10
2022-10-07T03:44:19.747Z,18.10
2022-10-07T03:47:10.643Z,18.10
2022-10-07T03:49:58.070Z,18.10
2022-10-07T03:52:45.657Z,18.00
2022-10-07T03:55:32.651Z,18.00
2022-10-07T03:58:18.961Z,18.00
2022-10-07T04:01:11.192Z,18.00
2022-10-07T04:04:02.422Z,17.90
2022-10-07T04:06:52.807Z,17.90
2022-10-07T04:09:39.365Z,17.90
2022-10-07T04:12:25.421Z,18.00
2022-10-07T04:15:15.053Z,17.90
2022-10-07T04:18:03.376Z,17.90
2022-10-07T04:20:49.685Z,17.90
2022-10-07T04:23:37.057Z,17.90
2022-10-07T04:26:23.152Z,17.90
2022-10-07T04:29:09.657Z,17.80
2022-10-07T04:31:58.933Z,17.80
2022-10-07T04:34:45.365Z,17.80
2022-10-07T04:37:31.253Z,17.80
2022-10-07T04:40:19.773Z,17.80
2022-10-07T04:43:23.524Z,17.70
2022-10-07T04:46:15.796Z,17.70
2022-10-07T04:49:07.322Z,17.70
2022-10-07T04:51:54.740Z,17.70
2022-10-07T04:54:43.197Z,17.80
2022-10-07T04:57:29.952Z,17.80
2022-10-07T05:00:16.082Z,17.70
2022-10-07T05:03:01.895Z,17.70
2022-10-07T05:05:51.154Z,17.70
2022-10-07T05:08:38.272Z,17.70
2022-10-07T05:11:26.009Z,17.70
2022-10-07T05:14:25.463Z,17.60
2022-10-07T05:17:13.032Z,17.60
2022-10-07T05:19:59.693Z,17.50
2022-10-07T05:22:46.148Z,17.50
2022-10-07T05:25:33.110Z,17.50
2022-10-07T05:28:20.029Z,17.50
2022-10-07T05:31:11.413Z,17.40
2022-10-07T05:33:59.231Z,17.40
2022-10-07T05:36:45.829Z,17.40
2022-10-07T05:39:32.096Z,17.40
2022-10-07T05:42:25.146Z,17.50
2022-10-07T05:45:14.774Z,17.50
2022-10-07T05:48:01.368Z,17.40
2022-10-07T05:50:47.937Z,17.50
2022-10-07T05:53:35.139Z,17.50
2022-10-07T05:56:24.083Z,17.50
2022-10-07T05:59:13.916Z,17.50
2022-10-07T06:02:02.162Z,17.50
2022-10-07T06:04:48.993Z,17.50
2022-10-07T06:07:36.413Z,17.60
2022-10-07T06:10:41.659Z,17.50
2022-10-07T06:13:27.970Z,17.50
2022-10-07T06:16:14.031Z,17.60
2022-10-07T06:19:00.944Z,17.60
2022-10-07T06:21:50.843Z,17.60
2022-10-07T06:24:38.121Z,17.60
2022-10-07T06:27:24.769Z,17.60
2022-10-07T06:30:13.336Z,17.70
2022-10-07T06:32:59.623Z,17.70
2022-10-07T06:35:47.188Z,17.70
2022-10-07T06:38:33.805Z,17.70
2022-10-07T06:41:21.297Z,17.80
2022-10-07T06:44:10.477Z,17.80
2022-10-07T06:46:56.228Z,17.80
2022-10-07T06:49:42.372Z,17.80
2022-10-07T06:52:28.678Z,17.90
2022-10-07T06:55:15.517Z,17.80
2022-10-07T06:58:02.033Z,17.90
2022-10-07T07:00:53.303Z,17.90
2022-10-07T07:03:41.670Z,17.90
2022-10-07T07:06:27.739Z,17.90
2022-10-07T07:09:14.246Z,17.90
2022-10-07T07:12:02.998Z,17.90
2022-10-07T07:14:53.195Z,18.10
2022-10-07T07:17:41.302Z,18.20
2022-10-07T07:20:35.100Z,18.30
2022-10-07T07:23:21.145Z,18.20
2022-10-07T07:26:07.137Z,18.30
2022-10-07T07:28:58.862Z,18.30
2022-10-07T07:31:51.076Z,18.20
2022-10-07T07:34:40.295Z,18.20
2022-10-07T07:37:30.248Z,18.20
2022-10-07T07:40:17.916Z,18.30
2022-10-07T07:43:06.071Z,18.20
2022-10-07T07:45:53.831Z,18.20
2022-10-07T07:48:40.563Z,18.30
2022-10-07T07:51:27.081Z,18.30
2022-10-07T07:54:14.389Z,18.30
2022-10-07T07:57:02.433Z,18.40
2022-10-07T07:59:50.374Z,18.40
2022-10-07T08:02:37.181Z,18.60
2022-10-07T08:05:24.160Z,18.60
2022-10-07T08:08:15.119Z,18.70
2022-10-07T08:11:10.353Z,18.70
2022-10-07T08:13:57.669Z,18.80
2022-10-07T08:16:45.010Z,18.80
2022-10-07T08:19:31.248Z,18.80
2022-10-07T08:22:18.162Z,18.80
2022-10-07T08:25:09.117Z,18.90
2022-10-07T08:27:55.313Z,19.00
2022-10-07T08:30:41.831Z,19.00
2022-10-07T08:33:27.653Z,19.10
2022-10-07T08:36:20.361Z,19.10
2022-10-07T08:39:06.858Z,19.10
2022-10-07T08:42:04.113Z,19.20
2022-10-07T08:44:51.685Z,19.10
2022-10-07T08:47:47.767Z,19.10
2022-10-07T08:50:46.919Z,19.20
2022-10-07T08:53:35.621Z,19.30
2022-10-07T08:56:24.577Z,19.40
2022-10-07T08:59:24.708Z,19.40
2022-10-07T09:02:44.272Z,19.50
2022-10-07T09:05:40.514Z,19.50
2022-10-07T09:08:36.533Z,19.60
2022-10-07T09:11:25.925Z,19.70
2022-10-07T09:14:33.747Z,19.70
2022-10-07T09:17:43.427Z,19.70
2022-10-07T09:20:36.011Z,19.80
2022-10-07T09:23:25.992Z,19.90
2022-10-07T09:26:14.930Z,20.00
2022-10-07T09:29:01.358Z,20.10
2022-10-07T09:31:49.432Z,20.20
2022-10-07T09:34:34.957Z,20.30
2022-10-07T09:37:24.284Z,20.40
2022-10-07T09:40:31.952Z,20.30
2022-10-07T09:43:19.980Z,20.40
2022-10-07T09:46:06.168Z,20.40
2022-10-07T09:49:04.497Z,20.50
2022-10-07T09:52:15.940Z,20.50
2022-10-07T09:55:32.616Z,20.60
2022-10-07T09:58:20.230Z,20.70
2022-10-07T10:01:11.202Z,20.80
2022-10-07T10:03:58.716Z,20.90
2022-10-07T10:06:52.704Z,20.90
2022-10-07T10:09:38.424Z,21.00
2022-10-07T10:12:26.366Z,21.00
2022-10-07T10:15:30.293Z,21.10
2022-10-07T10:18:31.021Z,21.20
2022-10-07T10:21:27.345Z,21.30
2022-10-07T10:24:16.946Z,21.30
2022-10-07T10:27:16.185Z,21.40
2022-10-07T10:30:09.301Z,21.50
2022-10-07T10:33:08.457Z,21.60
2022-10-07T10:36:06.773Z,21.50
2022-10-07T10:39:12.796Z,21.50
2022-10-07T10:42:01.270Z,21.60
2022-10-07T10:44:56.426Z,21.70
2022-10-07T10:47:57.398Z,21.90
2022-10-07T10:51:31.995Z,21.90
2022-10-07T10:54:38.773Z,21.90
2022-10-07T10:57:44.285Z,22.10
2022-10-07T11:00:52.271Z,22.20
2022-10-07T11:04:00.908Z,22.20
2022-10-07T11:06:53.250Z,22.40
2022-10-07T11:09:45.017Z,22.50
2022-10-07T11:12:38.288Z,22.50
2022-10-07T11:15:31.048Z,22.60
2022-10-07T11:18:35.765Z,22.60
2022-10-07T11:21:47.402Z,22.70
2022-10-07T11:24:37.068Z,22.80
2022-10-07T11:27:35.014Z,22.90
2022-10-07T11:30:23.798Z,22.90
2022-10-07T11:33:19.785Z,23.00
2022-10-07T11:36:25.025Z,23.20
2022-10-07T11:39:11.295Z,23.30
2022-10-07T11:42:31.777Z,23.30
2022-10-07T11:45:27.063Z,23.40
2022-10-07T11:48:21.788Z,23.50
2022-10-07T11:51:17.709Z,23.50
2022-10-07T11:54:06.761Z,23.70
2022-10-07T11:56:55.998Z,23.70
2022-10-07T11:59:46.222Z,23.80
2022-10-07T12:02:32.364Z,23.90
2022-10-07T12:05:48.880Z,24.10
2022-10-07T12:08:36.406Z,24.30
2022-10-07T12:11:37.180Z,24.40
2022-10-07T12:14:31.940Z,24.50
2022-10-07T12:17:22.555Z,24.50
2022-10-07T12:20:42.969Z,24.40
2022-10-07T12:23:31.386Z,24.50
2022-10-07T12:26:31.098Z,24.50
2022-10-07T12:29:31.777Z,24.80
2022-10-07T12:32:46.164Z,25.00
2022-10-07T12:35:35.620Z,25.30
2022-10-07T12:38:31.193Z,25.50
2022-10-07T12:41:25.336Z,25.60
2022-10-07T12:44:21.643Z,25.70
2022-10-07T12:47:13.909Z,25.80
2022-10-07T12:50:11.385Z,25.90
2022-10-07T12:53:00.959Z,26.10
2022-10-07T12:55:53.763Z,26.20
2022-10-07T12:59:11.770Z,26.40
2022-10-07T13:02:14.822Z,26.70
2022-10-07T13:05:37.634Z,26.90
2022-10-07T13:09:02.765Z,27.00
2022-10-07T13:12:10.250Z,27.00
2022-10-07T13:15:05.659Z,27.30
2022-10-07T13:18:00.438Z,27.40
2022-10-07T13:21:04.233Z,27.30
2022-10-07T13:23:54.445Z,27.30
2022-10-07T13:26:45.512Z,27.90
2022-10-07T13:29:33.392Z,29.60
2022-10-07T13:32:25.361Z,30.90
2022-10-07T13:35:30.374Z,32.80
2022-10-07T13:38:26.948Z,33.60
2022-10-07T13:41:15.765Z,34.40
2022-10-07T13:44:04.638Z,35.30
2022-10-07T13:46:56.158Z,35.10
2022-10-07T13:49:46.385Z,35.50
2022-10-07T13:52:41.577Z,35.60
2022-10-07T13:55:35.267Z,36.10
2022-10-07T13:58:21.275Z,36.30
2022-10-07T14:01:07.562Z,35.70
2022-10-07T14:04:15.715Z,36.00
2022-10-07T14:07:19.528Z,35.10
2022-10-07T14:10:10.098Z,34.30
2022-10-07T14:13:00.042Z,34.30
2022-10-07T14:15:50.961Z,34.90
2022-10-07T14:18:43.455Z,35.60
2022-10-07T14:21:30.586Z,36.30
2022-10-07T14:24:20.457Z,36.70
2022-10-07T14:27:40.374Z,36.80
2022-10-07T14:30:56.743Z,36.80
2022-10-07T14:34:07.670Z,37.10
2022-10-07T14:37:05.220Z,37.00
2022-10-07T14:39:53.222Z,36.40
2022-10-07T14:42:38.858Z,36.30
2022-10-07T14:45:24.485Z,36.30
2022-10-07T14:48:14.216Z,36.30
2022-10-07T14:51:00.387Z,36.80
2022-10-07T14:53:50.295Z,36.80
2022-10-07T14:56:38.913Z,37.00
2022-10-07T14:59:24.974Z,37.10
2022-10-07T15:02:12.798Z,37.00
2022-10-07T15:04:59.478Z,36.60
2022-10-07T15:07:45.272Z,36.60
2022-10-07T15:10:32.750Z,36.50
2022-10-07T15:13:18.897Z,36.30
2022-10-07T15:16:04.929Z,35.20
2022-10-07T15:18:53.059Z,35.50
2022-10-07T15:21:39.071Z,35.80
2022-10-07T15:24:25.154Z,35.30
2022-10-07T15:27:11.094Z,35.30
2022-10-07T15:29:56.977Z,35.40
2022-10-07T15:32:43.152Z,35.00
2022-10-07T15:35:31.241Z,35.10
2022-10-07T15:38:17.306Z,34.50
2022-10-07T15:41:03.352Z,34.40
2022-10-07T15:43:49.659Z,34.20
2022-10-07T15:46:35.689Z,34.00
2022-10-07T15:49:22.292Z,33.50
2022-10-07T15:52:09.066Z,32.70
2022-10-07T15:54:55.467Z,32.50
2022-10-07T15:57:41.240Z,32.00
2022-10-07T16:00:27.711Z,31.80
2022-10-07T16:03:15.245Z,31.80
2022-10-07T16:06:03.022Z,31.50
2022-10-07T16:08:55.290Z,31.50
2022-10-07T16:11:42.113Z,31.20
2022-10-07T16:14:27.902Z,30.50
2022-10-07T16:17:14.451Z,29.90
2022-10-07T16:20:05.554Z,29.60
2022-10-07T16:22:55.191Z,29.20
2022-10-07T16:25:41.748Z,28.90
2022-10-07T16:28:46.490Z,28.60
2022-10-07T16:31:34.474Z,28.40
2022-10-07T16:34:20.809Z,28.20
2022-10-07T16:37:06.445Z,28.00
2022-10-07T16:39:52.125Z,27.70
2022-10-07T16:42:37.711Z,27.50
2022-10-07T16:45:24.233Z,27.40
2022-10-07T16:48:10.777Z,27.30
2022-10-07T16:50:58.241Z,27.00
2022-10-07T16:53:47.375Z,26.80
2022-10-07T16:56:35.223Z,26.70
2022-10-07T16:59:24.356Z,26.50
2022-10-07T17:02:11.169Z,26.40
2022-10-07T17:04:57.364Z,26.30
2022-10-07T17:07:43.532Z,26.10
2022-10-07T17:10:29.756Z,26.10
2022-10-07T17:13:18.563Z,25.90
2022-10-07T17:16:06.270Z,25.80
2022-10-07T17:18:53.475Z,25.70
2022-10-07T17:21:42.000Z,25.60
2022-10-07T17:24:28.189Z,25.50
2022-10-07T17:27:14.867Z,25.40
2022-10-07T17:30:01.290Z,25.30
2022-10-07T17:32:50.356Z,25.20
2022-10-07T17:35:36.486Z,25.00
2022-10-07T17:38:22.449Z,24.90
2022-10-07T17:41:24.513Z,24.90
2022-10-07T17:44:12.452Z,24.90
2022-10-07T17:47:03.627Z,24.80
2022-10-07T17:49:49.958Z,24.70
2022-10-07T17:52:36.108Z,24.70
2022-10-07T17:55:22.557Z,24.60
2022-10-07T17:58:08.751Z,24.50
2022-10-07T18:00:55.768Z,24.50
2022-10-07T18:03:43.400Z,24.30
2022-10-07T18:06:34.354Z,24.20
2022-10-07T18:09:22.298Z,24.20
2022-10-07T18:12:26.328Z,24.10
2022-10-07T18:15:19.535Z,24.00
2022-10-07T18:18:06.183Z,23.80
2022-10-07T18:20:53.124Z,23.80
2022-10-07T18:23:40.111Z,23.70
2022-10-07T18:26:26.275Z,23.60
2022-10-07T18:29:12.692Z,23.60
2022-10-07T18:31:59.235Z,23.50
2022-10-07T18:34:45.229Z,23.50
2022-10-07T18:37:31.391Z,23.40
2022-10-07T18:40:17.418Z,23.40
2022-10-07T18:43:04.189Z,23.40
2022-10-07T18:46:08.249Z,23.30
2022-10-07T18:48:54.570Z,23.30
2022-10-07T18:51:41.260Z,23.20
2022-10-07T18:54:27.585Z,23.20
2022-10-07T18:57:13.393Z,23.20
2022-10-07T18:59:59.710Z,23.10
2022-10-07T19:02:46.152Z,23.00
2022-10-07T19:05:39.432Z,22.90
2022-10-07T19:08:25.604Z,22.80
2022-10-07T19:11:15.690Z,22.80
2022-10-07T19:14:02.111Z,22.80
2022-10-07T19:16:49.331Z,22.70
2022-10-07T19:19:35.671Z,22.60
2022-10-07T19:22:22.645Z,22.60
2022-10-07T19:25:28.357Z,22.50
2022-10-07T19:28:14.509Z,22.40
2022-10-07T19:31:18.512Z,22.40
2022-10-07T19:34:08.185Z,22.40
2022-10-07T19:36:55.115Z,22.40
2022-10-07T19:39:41.166Z,22.30
2022-10-07T19:42:28.606Z,22.20
2022-10-07T19:45:15.498Z,22.30
2022-10-07T19:48:04.308Z,22.20
2022-10-07T19:50:57.168Z,22.20
2022-10-07T19:53:47.109Z,22.00
2022-10-07T19:56:35.611Z,22.00
2022-10-07T19:59:22.253Z,21.90
2022-10-07T20:02:12.182Z,21.90
2022-10-07T20:04:58.005Z,21.80
2022-10-07T20:07:43.750Z,21.80
2022-10-07T20:10:29.945Z,21.80
2022-10-07T20:13:17.554Z,21.80
2022-10-07T20:16:07.641Z,21.80
2022-10-07T20:19:06.748Z,21.70
2022-10-07T20:21:52.406Z,21.60
2022-10-07T20:24:39.011Z,21.60
2022-10-07T20:27:24.975Z,21.60
2022-10-07T20:30:17.895Z,21.40
2022-10-07T20:33:04.491Z,21.40
2022-10-07T20:35:52.716Z,21.40
2022-10-07T20:38:57.384Z,21.40
2022-10-07T20:42:02.226Z,21.30
2022-10-07T20:44:49.280Z,21.20
2022-10-07T20:47:35.429Z,20.90
2022-10-07T20:50:21.106Z,21.00
2022-10-07T20:53:07.086Z,20.90
2022-10-07T20:55:53.264Z,20.90
2022-10-07T20:58:38.823Z,20.90
2022-10-07T21:01:25.139Z,20.90
2022-10-07T21:04:13.770Z,20.90
2022-10-07T21:06:59.903Z,20.80
2022-10-07T21:09:46.371Z,20.70
2022-10-07T21:12:32.636Z,20.70
2022-10-07T21:15:20.139Z,20.60
2022-10-07T21:18:06.647Z,20.70
2022-10-07T21:20:56.905Z,20.60
2022-10-07T21:23:43.256Z,20.60
2022-10-07T21:26:29.603Z,20.50
2022-10-07T21:29:15.460Z,20.50
2022-10-07T21:32:02.077Z,20.50
2022-10-07T21:34:48.295Z,20.40
2022-10-07T21:37:33.879Z,20.50
2022-10-07T21:40:20.328Z,20.40
2022-10-07T21:43:06.410Z,20.30
2022-10-07T21:45:52.018Z,20.20
2022-10-07T21:48:38.536Z,20.20
2022-10-07T21:51:27.047Z,20.20
2022-10-07T21:54:14.233Z,20.20
2022-10-07T21:57:00.304Z,20.20
2022-10-07T21:59:46.886Z,20.20
2022-10-07T22:02:33.742Z,20.30
2022-10-07T22:05:19.599Z,20.20
2022-10-07T22:08:31.208Z,20.10
2022-10-07T22:11:19.401Z,20.10
2022-10-07T22:14:09.966Z,20.10
2022-10-07T22:16:57.929Z,20.00
2022-10-07T22:19:44.253Z,20.00
2022-10-07T22:22:29.840Z,20.10
2022-10-07T22:25:15.893Z,20.10
2022-10-07T22:28:01.771Z,20.10
2022-10-07T22:30:47.930Z,20.10
2022-10-07T22:33:35.391Z,20.10
2022-10-07T22:36:22.190Z,20.10
2022-10-07T22:39:08.416Z,20.10
2022-10-07T22:41:54.398Z,20.00
2022-10-07T22:44:40.262Z,19.90
2022-10-07T22:47:26.584Z,19.80
2022-10-07T22:50:12.678Z,19.80
2022-10-07T22:52:59.096Z,19.80
2022-10-07T22:55:45.399Z,19.80
2022-10-07T22:58:31.864Z,19.80
2022-10-07T23:01:18.366Z,19.80
2022-10-07T23:04:05.343Z,19.70
2022-10-07T23:06:51.341Z,19.70
2022-10-07T23:09:37.862Z,19.80
2022-10-07T23:12:23.613Z,19.70
2022-10-07T23:15:09.827Z,19.70
2022-10-07T23:17:55.691Z,19.70
2022-10-07T23:20:41.125Z,19.60
2022-10-07T23:23:28.886Z,19.60
2022-10-07T23:26:23.363Z,19.60
2022-10-07T23:29:11.725Z,19.50
2022-10-07T23:31:57.288Z,19.50
2022-10-07T23:34:43.449Z,19.50
2022-10-07T23:37:29.269Z,19.50
2022-10-07T23:40:15.835Z,19.60
2022-10-07T23:43:01.809Z,19.60
2022-10-07T23:45:49.695Z,19.50
2022-10-07T23:48:36.250Z,19.40
2022-10-07T23:51:24.436Z,19.30
2022-10-07T23:54:10.520Z,19.40
2022-10-07T23:56:56.268Z,19.30
2022-10-07T23:59:42.206Z,19.40
